createdAt,value
2018-06-22T00:03:18.980Z,12.30
2018-06-22T00:05:47.460Z,12.30
2018-06-22T00:08:16.121Z,12.40
2018-06-22T00:10:44.566Z,12.40
2018-06-22T00:13:12.977Z,12.40
2018-06-22T00:15:41.418Z,12.40
2018-06-22T00:18:09.949Z,12.40
2018-06-22T00:20:38.393Z,12.10
2018-06-22T00:25:34.970Z,12.10
2018-06-22T00:28:03.418Z,12.30
2018-06-22T00:30:31.929Z,12.10
2018-06-22T00:33:00.381Z,12.20
2018-06-22T00:35:28.829Z,12.00
2018-06-22T00:37:57.307Z,11.80
2018-06-22T00:40:25.789Z,11.90
2018-06-22T00:42:54.234Z,12.00
2018-06-22T00:45:22.701Z,12.00
2018-06-22T00:47:51.150Z,12.10
2018-06-22T00:50:19.645Z,11.80
2018-06-22T00:52:48.098Z,11.80
2018-06-22T00:55:16.577Z,11.80
2018-06-22T00:57:45.014Z,11.60
2018-06-22T01:00:13.489Z,11.40
2018-06-22T01:02:41.965Z,11.50
2018-06-22T01:05:10.415Z,11.70
2018-06-22T01:07:39.287Z,11.70
2018-06-22T01:10:07.742Z,11.50
2018-06-22T01:12:36.254Z,11.40
2018-06-22T01:15:04.773Z,11.20
2018-06-22T01:17:33.613Z,11.20
2018-06-22T01:20:02.189Z,11.30
2018-06-22T01:22:30.703Z,11.20
2018-06-22T01:24:59.158Z,11.00
2018-06-22T01:27:27.634Z,10.90
2018-06-22T01:29:56.078Z,11.00
2018-06-22T01:32:24.578Z,11.20
2018-06-22T01:34:53.035Z,11.10
2018-06-22T01:37:21.539Z,11.50
2018-06-22T01:39:49.998Z,11.80
2018-06-22T01:42:18.511Z,11.60
2018-06-22T01:44:46.978Z,11.70
2018-06-22T01:47:15.478Z,11.70
2018-06-22T01:49:43.934Z,11.60
2018-06-22T01:52:12.398Z,11.40
2018-06-22T01:54:40.888Z,11.10
2018-06-22T01:57:09.346Z,10.90
2018-06-22T01:59:37.849Z,10.60
2018-06-22T02:02:06.395Z,10.70
2018-06-22T02:04:34.877Z,10.90
2018-06-22T02:07:03.334Z,10.80
2018-06-22T02:09:31.812Z,10.70
2018-06-22T02:12:00.266Z,10.70
2018-06-22T02:14:28.762Z,10.70
2018-06-22T02:16:57.219Z,10.60
2018-06-22T02:19:25.698Z,10.50
2018-06-22T02:21:54.186Z,10.60
2018-06-22T02:24:22.706Z,10.50
2018-06-22T02:26:51.333Z,10.40
2018-06-22T02:29:19.814Z,10.40
2018-06-22T02:31:48.285Z,10.30
2018-06-22T02:34:16.888Z,10.50
2018-06-22T02:36:45.370Z,10.60
2018-06-22T02:39:14.140Z,10.70
2018-06-22T02:41:42.614Z,10.80
2018-06-22T02:44:11.098Z,10.90
2018-06-22T02:46:39.576Z,10.60
2018-06-22T02:49:08.035Z,10.70
2018-06-22T02:51:36.579Z,10.60
2018-06-22T02:54:05.108Z,10.80
2018-06-22T02:56:33.579Z,10.70
2018-06-22T02:59:02.032Z,10.70
2018-06-22T03:01:30.584Z,10.90
2018-06-22T03:03:59.058Z,10.90
2018-06-22T03:06:27.582Z,10.90
2018-06-22T03:08:56.086Z,10.80
2018-06-22T03:11:24.561Z,10.80
2018-06-22T03:13:52.959Z,10.70
2018-06-22T03:16:21.413Z,10.70
2018-06-22T03:18:49.818Z,10.70
2018-06-22T03:21:18.228Z,10.80
2018-06-22T03:23:46.613Z,10.80
2018-06-22T03:26:15.023Z,10.80
2018-06-22T03:28:43.413Z,11.00
2018-06-22T03:31:11.837Z,10.90
2018-06-22T03:33:40.231Z,11.00
2018-06-22T03:36:08.670Z,11.00
2018-06-22T03:38:37.070Z,11.00
2018-06-22T03:41:05.477Z,11.10
2018-06-22T03:43:33.890Z,10.90
2018-06-22T03:46:02.350Z,10.80
2018-06-22T03:48:33.259Z,10.90
2018-06-22T03:51:01.989Z,11.00
2018-06-22T03:53:30.366Z,10.90
2018-06-22T03:55:58.765Z,11.00
2018-06-22T03:58:27.194Z,10.90
2018-06-22T04:00:55.613Z,11.00
2018-06-22T04:03:24.035Z,11.10
2018-06-22T04:05:52.429Z,11.20
2018-06-22T04:08:20.850Z,11.10
2018-06-22T04:13:17.398Z,11.10
2018-06-22T04:15:45.878Z,11.10
2018-06-22T04:18:14.325Z,11.00
2018-06-22T04:20:42.706Z,10.80
2018-06-22T04:23:11.113Z,10.90
2018-06-22T04:25:39.494Z,10.90
2018-06-22T04:28:07.921Z,10.70
2018-06-22T04:30:36.318Z,10.70
2018-06-22T04:33:04.786Z,10.90
2018-06-22T04:35:33.202Z,11.00
2018-06-22T04:38:01.647Z,11.00
2018-06-22T04:40:30.042Z,11.00
2018-06-22T04:42:58.453Z,10.90
2018-06-22T04:45:26.837Z,10.90
2018-06-22T04:47:55.274Z,11.10
2018-06-22T04:50:23.673Z,11.20
2018-06-22T04:52:52.106Z,11.40
2018-06-22T04:55:20.542Z,11.60
2018-06-22T04:57:48.942Z,11.50
2018-06-22T05:00:17.361Z,11.40
2018-06-22T05:02:45.765Z,11.50
2018-06-22T05:05:14.170Z,11.70
2018-06-22T05:07:42.622Z,11.90
2018-06-22T05:10:11.058Z,11.80
2018-06-22T05:12:39.446Z,12.00
2018-06-22T05:15:07.855Z,12.20
2018-06-22T05:17:36.313Z,12.40
2018-06-22T05:20:04.761Z,12.50
2018-06-22T05:22:33.176Z,12.70
2018-06-22T05:25:01.580Z,12.80
2018-06-22T05:27:30.009Z,12.80
2018-06-22T05:29:58.643Z,12.80
2018-06-22T05:32:27.033Z,12.90
2018-06-22T05:34:55.463Z,13.00
2018-06-22T05:37:23.881Z,13.10
2018-06-22T05:39:52.290Z,13.10
2018-06-22T05:42:20.690Z,13.20
2018-06-22T05:44:49.110Z,13.10
2018-06-22T05:47:17.502Z,13.00
2018-06-22T05:49:45.905Z,12.90
2018-06-22T05:52:14.309Z,12.80
2018-06-22T05:54:42.705Z,13.00
2018-06-22T05:57:11.136Z,13.00
2018-06-22T05:59:39.517Z,13.00
2018-06-22T06:02:07.940Z,13.10
2018-06-22T06:04:36.334Z,13.20
2018-06-22T06:07:04.749Z,13.10
2018-06-22T06:09:33.133Z,13.00
2018-06-22T06:12:01.554Z,13.00
2018-06-22T06:14:29.958Z,12.90
2018-06-22T06:16:58.378Z,13.20
2018-06-22T06:19:26.799Z,13.30
2018-06-22T06:21:55.206Z,13.30
2018-06-22T06:24:23.597Z,13.10
2018-06-22T06:29:20.104Z,13.10
2018-06-22T06:31:48.504Z,13.10
2018-06-22T06:34:16.950Z,13.20
2018-06-22T06:36:45.364Z,13.30
2018-06-22T06:39:13.765Z,13.30
2018-06-22T06:41:42.183Z,13.40
2018-06-22T06:44:10.565Z,13.30
2018-06-22T06:46:38.954Z,13.40
2018-06-22T06:49:07.377Z,13.40
2018-06-22T06:51:35.758Z,13.20
2018-06-22T06:54:04.639Z,13.30
2018-06-22T06:56:33.026Z,13.20
2018-06-22T06:59:01.722Z,13.50
2018-06-22T07:01:30.294Z,13.40
2018-06-22T07:03:58.958Z,13.40
2018-06-22T07:06:27.390Z,13.50
2018-06-22T07:08:55.853Z,13.50
2018-06-22T07:11:24.329Z,13.20
2018-06-22T07:13:52.730Z,13.20
2018-06-22T07:16:21.118Z,13.00
2018-06-22T07:18:49.629Z,13.00
2018-06-22T07:21:18.020Z,13.20
2018-06-22T07:23:46.419Z,13.30
2018-06-22T07:26:14.802Z,13.40
2018-06-22T07:28:43.237Z,13.30
2018-06-22T07:31:11.640Z,13.30
2018-06-22T07:33:40.086Z,13.40
2018-06-22T07:36:08.535Z,13.40
2018-06-22T07:38:36.965Z,13.50
2018-06-22T07:41:05.633Z,13.50
2018-06-22T07:43:34.082Z,13.50
2018-06-22T07:46:02.526Z,13.60
2018-06-22T07:48:30.974Z,13.40
2018-06-22T07:50:59.355Z,13.40
2018-06-22T07:53:27.752Z,13.60
2018-06-22T07:55:56.166Z,13.60
2018-06-22T07:58:24.573Z,13.70
2018-06-22T08:00:52.983Z,13.50
2018-06-22T08:03:21.402Z,13.60
2018-06-22T08:05:49.822Z,13.60
2018-06-22T08:08:18.222Z,13.50
2018-06-22T08:10:46.640Z,13.50
2018-06-22T08:13:15.037Z,13.50
2018-06-22T08:15:43.453Z,13.60
2018-06-22T08:18:11.849Z,13.50
2018-06-22T08:20:40.270Z,13.50
2018-06-22T08:23:08.658Z,13.40
2018-06-22T08:25:37.069Z,13.60
2018-06-22T08:28:05.484Z,13.70
2018-06-22T08:30:33.930Z,13.70
2018-06-22T08:33:02.324Z,13.90
2018-06-22T08:35:30.748Z,14.10
2018-06-22T08:37:59.166Z,13.80
2018-06-22T08:40:28.061Z,13.50
2018-06-22T08:42:56.766Z,13.50
2018-06-22T08:45:25.190Z,13.40
2018-06-22T08:47:53.594Z,13.40
2018-06-22T08:50:21.993Z,13.60
2018-06-22T08:52:50.397Z,13.60
2018-06-22T08:55:18.809Z,13.60
2018-06-22T08:57:47.213Z,13.80
2018-06-22T09:00:15.782Z,13.90
2018-06-22T09:02:44.187Z,14.00
2018-06-22T09:05:12.577Z,13.80
2018-06-22T09:07:41.026Z,13.80
2018-06-22T09:10:09.439Z,13.80
2018-06-22T09:12:37.877Z,14.20
2018-06-22T09:15:06.252Z,14.50
2018-06-22T09:17:34.706Z,14.70
2018-06-22T09:20:03.182Z,14.70
2018-06-22T09:22:31.582Z,14.80
2018-06-22T09:24:59.970Z,14.90
2018-06-22T09:27:28.416Z,15.20
2018-06-22T09:29:56.805Z,14.60
2018-06-22T09:32:25.215Z,14.50
2018-06-22T09:34:53.617Z,14.60
2018-06-22T09:37:22.054Z,14.50
2018-06-22T09:39:50.437Z,14.40
2018-06-22T09:42:18.817Z,14.50
2018-06-22T09:44:47.214Z,14.60
2018-06-22T09:47:15.610Z,14.50
2018-06-22T09:49:44.017Z,14.70
2018-06-22T09:52:12.411Z,14.80
2018-06-22T09:54:40.823Z,15.00
2018-06-22T09:57:09.211Z,15.10
2018-06-22T09:59:37.621Z,15.00
2018-06-22T10:02:06.071Z,15.00
2018-06-22T10:04:34.442Z,14.90
2018-06-22T10:07:02.846Z,14.80
2018-06-22T10:09:31.298Z,14.90
2018-06-22T10:11:59.689Z,14.90
2018-06-22T10:14:28.166Z,15.20
2018-06-22T10:16:56.685Z,15.30
2018-06-22T10:19:25.106Z,15.20
2018-06-22T10:21:53.534Z,15.20
2018-06-22T10:24:21.970Z,15.10
2018-06-22T10:26:50.370Z,15.00
2018-06-22T10:29:18.802Z,15.00
2018-06-22T10:31:47.182Z,15.10
2018-06-22T10:34:15.603Z,14.90
2018-06-22T10:36:44.022Z,15.10
2018-06-22T10:39:13.421Z,15.10
2018-06-22T10:41:41.934Z,15.30
2018-06-22T10:44:10.862Z,15.40
2018-06-22T10:46:39.721Z,15.40
2018-06-22T10:49:08.180Z,15.50
2018-06-22T10:51:36.679Z,15.50
2018-06-22T10:54:05.199Z,15.30
2018-06-22T10:56:33.658Z,15.20
2018-06-22T10:59:02.086Z,15.40
2018-06-22T11:01:31.461Z,15.50
2018-06-22T11:03:59.873Z,15.60
2018-06-22T11:06:28.514Z,15.50
2018-06-22T11:08:56.923Z,15.60
2018-06-22T11:11:25.539Z,15.60
2018-06-22T11:13:54.027Z,15.50
2018-06-22T11:16:22.381Z,15.30
2018-06-22T11:18:50.793Z,15.40
2018-06-22T11:21:19.262Z,15.70
2018-06-22T11:23:47.663Z,16.20
2018-06-22T11:26:16.090Z,16.70
2018-06-22T11:28:44.531Z,17.00
2018-06-22T11:31:13.004Z,17.10
2018-06-22T11:33:41.415Z,16.90
2018-06-22T11:36:09.887Z,17.00
2018-06-22T11:38:38.282Z,17.30
2018-06-22T11:41:06.725Z,16.90
2018-06-22T11:43:35.161Z,17.10
2018-06-22T11:46:03.601Z,17.00
2018-06-22T11:48:32.053Z,16.90
2018-06-22T11:51:00.483Z,16.80
2018-06-22T11:53:28.918Z,16.20
2018-06-22T11:55:57.297Z,16.10
2018-06-22T11:58:25.709Z,16.00
2018-06-22T12:00:54.154Z,16.20
2018-06-22T12:03:22.581Z,16.40
2018-06-22T12:05:51.010Z,16.50
2018-06-22T12:08:19.424Z,16.70
2018-06-22T12:10:47.833Z,17.10
2018-06-22T12:13:16.320Z,17.40
2018-06-22T12:15:44.748Z,17.60
2018-06-22T12:18:13.164Z,17.60
2018-06-22T12:20:41.556Z,17.30
2018-06-22T12:23:10.022Z,17.40
2018-06-22T12:25:38.445Z,17.30
2018-06-22T12:28:06.866Z,17.20
2018-06-22T12:30:35.257Z,17.00
2018-06-22T12:33:03.751Z,17.00
2018-06-22T12:35:32.178Z,17.10
2018-06-22T12:38:00.680Z,17.30
2018-06-22T12:40:29.105Z,17.60
2018-06-22T12:42:57.537Z,17.50
2018-06-22T12:45:26.113Z,17.40
2018-06-22T12:50:22.766Z,17.60
2018-06-22T12:52:51.179Z,17.40
2018-06-22T12:55:19.629Z,17.30
2018-06-22T12:57:48.047Z,17.50
2018-06-22T13:00:16.481Z,17.10
2018-06-22T13:02:44.882Z,17.10
2018-06-22T13:05:13.312Z,17.10
2018-06-22T13:07:41.705Z,17.20
2018-06-22T13:10:10.185Z,17.10
2018-06-22T13:12:38.620Z,17.10
2018-06-22T13:15:07.058Z,17.00
2018-06-22T13:17:35.469Z,17.00
2018-06-22T13:20:03.957Z,17.00
2018-06-22T13:22:32.358Z,17.00
2018-06-22T13:25:00.778Z,17.30
2018-06-22T13:27:29.174Z,17.40
2018-06-22T13:29:57.621Z,17.70
2018-06-22T13:32:26.005Z,17.80
2018-06-22T13:34:54.439Z,18.30
2018-06-22T13:37:22.893Z,18.70
2018-06-22T13:39:51.298Z,18.90
2018-06-22T13:42:19.737Z,18.90
2018-06-22T13:44:48.145Z,18.70
2018-06-22T13:47:16.572Z,18.50
2018-06-22T13:49:44.981Z,18.70
2018-06-22T13:52:13.415Z,18.90
2018-06-22T13:54:41.851Z,18.70
2018-06-22T13:57:10.391Z,18.60
2018-06-22T13:59:38.680Z,18.70
2018-06-22T14:02:07.390Z,18.20
2018-06-22T14:04:41.209Z,18.00
2018-06-22T14:07:09.626Z,18.20
2018-06-22T14:09:38.078Z,18.60
2018-06-22T14:12:06.481Z,19.40
2018-06-22T14:14:34.871Z,19.50
2018-06-22T14:17:03.341Z,19.20
2018-06-22T14:19:31.757Z,18.50
2018-06-22T14:22:00.314Z,18.00
2018-06-22T14:24:28.710Z,18.20
2018-06-22T14:26:57.125Z,18.30
2018-06-22T14:29:25.526Z,19.00
2018-06-22T14:31:53.969Z,19.50
2018-06-22T14:34:22.393Z,19.90
2018-06-22T14:36:50.864Z,19.70
2018-06-22T14:39:19.287Z,19.30
2018-06-22T14:41:47.677Z,19.10
2018-06-22T14:44:16.143Z,18.90
2018-06-22T14:46:44.544Z,18.70
2018-06-22T14:49:12.965Z,18.50
2018-06-22T14:51:41.364Z,18.20
2018-06-22T14:54:15.151Z,18.10
2018-06-22T14:56:48.975Z,18.00
2018-06-22T14:59:22.716Z,17.80
2018-06-22T15:01:56.426Z,17.60
2018-06-22T15:04:30.113Z,17.60
2018-06-22T15:07:03.962Z,17.70
2018-06-22T15:09:32.341Z,17.70
2018-06-22T15:12:00.725Z,17.60
2018-06-22T15:14:29.136Z,17.50
2018-06-22T15:16:57.584Z,17.30
2018-06-22T15:19:26.007Z,17.00
2018-06-22T15:21:54.405Z,17.00
2018-06-22T15:24:22.811Z,17.10
2018-06-22T15:26:52.365Z,16.90
2018-06-22T15:29:20.793Z,16.80
2018-06-22T15:31:49.205Z,16.80
2018-06-22T15:34:23.021Z,16.90
2018-06-22T15:36:56.806Z,16.70
2018-06-22T15:39:30.759Z,16.50
2018-06-22T15:42:04.530Z,16.50
2018-06-22T15:44:38.397Z,16.70
2018-06-22T15:47:12.625Z,16.70
2018-06-22T15:49:46.450Z,17.10
2018-06-22T15:52:20.321Z,17.40
2018-06-22T15:54:54.187Z,18.10
2018-06-22T15:57:22.627Z,18.60
2018-06-22T15:59:51.075Z,18.50
2018-06-22T16:02:24.877Z,18.00
2018-06-22T16:04:53.354Z,18.00
2018-06-22T16:07:21.757Z,18.20
2018-06-22T16:09:55.622Z,18.10
2018-06-22T16:12:29.430Z,17.90
2018-06-22T16:15:03.202Z,17.80
2018-06-22T16:17:37.042Z,17.70
2018-06-22T16:20:10.982Z,17.70
2018-06-22T16:22:44.671Z,17.90
2018-06-22T16:25:18.420Z,17.90
2018-06-22T16:27:51.996Z,17.80
2018-06-22T16:30:20.426Z,18.00
2018-06-22T16:32:48.833Z,18.10
2018-06-22T16:35:17.246Z,18.60
2018-06-22T16:37:45.707Z,18.80
2018-06-22T16:40:14.165Z,18.70
2018-06-22T16:42:42.574Z,18.70
2018-06-22T16:45:11.018Z,18.70
2018-06-22T16:47:39.455Z,18.80
2018-06-22T16:50:08.772Z,18.50
2018-06-22T16:52:37.588Z,18.70
2018-06-22T16:55:06.027Z,18.60
2018-06-22T16:57:34.514Z,18.20
2018-06-22T17:00:02.936Z,18.20
2018-06-22T17:02:31.598Z,18.00
2018-06-22T17:04:59.994Z,17.80
2018-06-22T17:07:33.629Z,17.80
2018-06-22T17:10:07.306Z,17.70
2018-06-22T17:12:41.029Z,17.60
2018-06-22T17:15:14.982Z,17.60
2018-06-22T17:17:48.829Z,17.60
2018-06-22T17:20:17.537Z,17.60
2018-06-22T17:22:46.241Z,17.30
2018-06-22T17:25:15.988Z,17.20
2018-06-22T17:27:45.224Z,17.10
2018-06-22T17:30:14.258Z,17.20
2018-06-22T17:32:43.097Z,17.20
2018-06-22T17:35:15.638Z,17.20
2018-06-22T17:37:44.829Z,17.00
2018-06-22T17:40:13.631Z,17.00
2018-06-22T17:42:43.212Z,16.80
2018-06-22T17:45:16.012Z,16.80
2018-06-22T17:47:44.430Z,16.80
2018-06-22T17:50:18.245Z,16.80
2018-06-22T17:52:46.650Z,16.90
2018-06-22T17:55:15.225Z,16.90
2018-06-22T17:57:43.731Z,17.00
2018-06-22T18:00:17.754Z,16.90
2018-06-22T18:02:51.765Z,16.90
2018-06-22T18:05:25.672Z,16.80
2018-06-22T18:07:55.485Z,16.90
2018-06-22T18:10:29.800Z,16.80
2018-06-22T18:13:00.143Z,16.80
2018-06-22T18:15:29.250Z,16.80
2018-06-22T18:17:57.864Z,16.90
2018-06-22T18:20:26.562Z,16.80
2018-06-22T18:22:55.184Z,16.60
2018-06-22T18:25:24.021Z,16.70
2018-06-22T18:27:52.446Z,16.80
2018-06-22T18:30:20.927Z,16.70
2018-06-22T18:32:49.346Z,16.50
2018-06-22T18:35:17.777Z,16.40
2018-06-22T18:37:46.218Z,16.40
2018-06-22T18:40:14.718Z,16.60
2018-06-22T18:42:43.137Z,16.60
2018-06-22T18:47:41.141Z,16.60
2018-06-22T18:50:09.594Z,16.60
2018-06-22T18:52:43.489Z,16.30
2018-06-22T18:55:17.322Z,16.50
2018-06-22T18:57:51.049Z,16.30
2018-06-22T19:00:24.885Z,16.20
2018-06-22T19:02:58.597Z,16.00
2018-06-22T19:05:26.994Z,16.00
2018-06-22T19:07:55.444Z,15.90
2018-06-22T19:10:23.872Z,15.90
2018-06-22T19:12:52.290Z,15.60
2018-06-22T19:15:20.709Z,15.60
2018-06-22T19:17:49.161Z,15.60
2018-06-22T19:20:17.609Z,15.80
2018-06-22T19:22:46.064Z,15.90
2018-06-22T19:25:14.467Z,15.80
2018-06-22T19:27:42.900Z,15.60
2018-06-22T19:30:11.356Z,15.60
2018-06-22T19:32:39.857Z,15.20
2018-06-22T19:35:11.262Z,14.90
2018-06-22T19:37:40.281Z,15.20
2018-06-22T19:40:08.729Z,15.10
2018-06-22T19:42:37.186Z,15.00
2018-06-22T19:45:11.194Z,15.10
2018-06-22T19:47:45.089Z,15.20
2018-06-22T19:50:18.919Z,15.20
2018-06-22T19:52:52.676Z,15.20
2018-06-22T19:55:21.103Z,15.00
2018-06-22T19:57:49.572Z,14.80
2018-06-22T20:00:18.016Z,14.90
2018-06-22T20:02:46.433Z,15.00
2018-06-22T20:05:14.919Z,15.10
2018-06-22T20:07:43.709Z,15.00
2018-06-22T20:10:12.145Z,14.90
2018-06-22T20:12:40.561Z,14.90
2018-06-22T20:15:09.019Z,14.80
2018-06-22T20:17:37.433Z,14.70
2018-06-22T20:20:07.165Z,14.60
2018-06-22T20:22:35.657Z,14.70
2018-06-22T20:25:09.564Z,14.60
2018-06-22T20:27:38.036Z,14.40
2018-06-22T20:30:06.495Z,14.60
2018-06-22T20:32:34.903Z,14.60
2018-06-22T20:35:08.610Z,14.60
2018-06-22T20:37:42.302Z,14.60
2018-06-22T20:40:16.042Z,14.60
2018-06-22T20:42:52.629Z,14.50
2018-06-22T20:45:26.486Z,14.50
2018-06-22T20:48:00.315Z,14.60
2018-06-22T20:50:34.370Z,14.90
2018-06-22T20:53:03.301Z,14.90
2018-06-22T20:55:32.259Z,14.80
2018-06-22T20:58:00.738Z,14.60
2018-06-22T21:00:29.182Z,14.50
2018-06-22T21:02:58.162Z,14.30
2018-06-22T21:05:26.621Z,14.10
2018-06-22T21:07:55.018Z,13.90
2018-06-22T21:10:23.470Z,14.00
2018-06-22T21:12:51.891Z,14.00
2018-06-22T21:15:20.329Z,14.00
2018-06-22T21:17:48.747Z,14.20
2018-06-22T21:20:17.209Z,14.10
2018-06-22T21:22:45.704Z,14.20
2018-06-22T21:25:14.066Z,14.20
2018-06-22T21:27:47.755Z,14.10
2018-06-22T21:31:20.434Z,14.10
2018-06-22T21:33:54.204Z,14.00
2018-06-22T21:36:28.057Z,13.70
2018-06-22T21:38:59.413Z,13.80
2018-06-22T21:41:27.851Z,13.80
2018-06-22T21:43:56.877Z,13.60
2018-06-22T21:46:25.562Z,13.80
2018-06-22T21:48:54.022Z,13.60
2018-06-22T21:51:22.458Z,13.50
2018-06-22T21:53:50.860Z,13.50
2018-06-22T21:56:19.282Z,13.40
2018-06-22T21:58:47.691Z,13.40
2018-06-22T22:01:16.174Z,13.50
2018-06-22T22:03:44.611Z,13.50
2018-06-22T22:06:13.059Z,13.50
2018-06-22T22:08:41.433Z,13.40
2018-06-22T22:11:10.758Z,13.50
2018-06-22T22:13:40.353Z,13.20
2018-06-22T22:16:09.480Z,13.30
2018-06-22T22:18:37.874Z,13.30
2018-06-22T22:21:06.557Z,13.30
2018-06-22T22:23:34.985Z,13.40
2018-06-22T22:28:31.530Z,13.30
2018-06-22T22:33:28.105Z,13.20
2018-06-22T22:35:56.509Z,13.30
2018-06-22T22:38:24.942Z,13.20
2018-06-22T22:40:53.349Z,13.20
2018-06-22T22:43:21.770Z,13.20
2018-06-22T22:45:50.181Z,13.20
2018-06-22T22:48:18.591Z,13.20
2018-06-22T22:50:46.989Z,13.20
2018-06-22T22:53:15.418Z,13.10
2018-06-22T22:55:43.858Z,12.90
2018-06-22T22:58:12.278Z,12.70
2018-06-22T23:00:40.712Z,12.70
2018-06-22T23:03:09.170Z,12.60
2018-06-22T23:05:37.578Z,12.70
2018-06-22T23:08:06.053Z,12.70
2018-06-22T23:10:34.429Z,12.70
2018-06-22T23:13:02.837Z,12.60
2018-06-22T23:15:31.228Z,12.70
2018-06-22T23:17:59.645Z,12.60
2018-06-22T23:20:28.041Z,12.40
2018-06-22T23:23:07.633Z,12.40
2018-06-22T23:25:36.038Z,12.40
2018-06-22T23:28:04.518Z,12.50
2018-06-22T23:30:32.910Z,12.50
2018-06-22T23:33:02.165Z,12.50
2018-06-22T23:35:30.566Z,12.60
2018-06-22T23:37:59.005Z,12.60
2018-06-22T23:40:27.425Z,12.50
2018-06-22T23:42:55.853Z,12.60
2018-06-22T23:45:24.270Z,12.70
2018-06-22T23:47:52.677Z,12.60
2018-06-22T23:50:21.124Z,12.50
2018-06-22T23:52:49.513Z,12.40
2018-06-22T23:55:17.977Z,12.50
2018-06-22T23:57:46.398Z,12.50
